A27 weather

Seldovia Seaplane Base
Seldovia, Alaska, United States

Public forecast

Using degrees Fahrenheit for public forecast. Weather courtesy of forecast.io.

METAR (pilot weather report)

Closest report is Seldovia Airport, 0.5 nm (1.0 km) NNE. Retrieved 2019/07/21 05:53 UTC (41 minutes ago):

PASO 210553Z AUTO 00000KT 10SM FEW032 16/12 A3011 RMK AO2 SLP195 T01560122 10200 20156 55002 TSNO

TAF (pilot weather forecast)

Closest forecast is Homer Airport, 14.5 nm (26.9 km) NNE. Retrieved 2019/07/21 06:40 UTC (0 seconds ago):

TAF PAHO 210538Z 2106/2206 VRB04KT P6SM SCT060 BKN100 FM211400 VRB03KT P6SM OVC045